sensor_id;sensor_type;location;lat;lon;timestamp;temperature;humidity
52189;DHT22;38162;45.926;13.608;2023-10-08T00:01:19;19.10;88.40
52189;DHT22;38162;45.926;13.608;2023-10-08T00:03:48;19.10;88.60
52189;DHT22;38162;45.926;13.608;2023-10-08T00:06:14;19.10;88.60
52189;DHT22;38162;45.926;13.608;2023-10-08T00:08:40;19.10;88.90
52189;DHT22;38162;45.926;13.608;2023-10-08T00:11:06;19.00;88.90
52189;DHT22;38162;45.926;13.608;2023-10-08T00:13:32;19.00;89.00
52189;DHT22;38162;45.926;13.608;2023-10-08T00:16:08;19.00;89.00
52189;DHT22;38162;45.926;13.608;2023-10-08T00:18:41;18.90;89.10
52189;DHT22;38162;45.926;13.608;2023-10-08T00:21:08;18.90;89.10
52189;DHT22;38162;45.926;13.608;2023-10-08T00:23:33;18.90;89.30
52189;DHT22;38162;45.926;13.608;2023-10-08T00:26:00;18.90;89.90
52189;DHT22;38162;45.926;13.608;2023-10-08T00:28:31;18.90;89.30
52189;DHT22;38162;45.926;13.608;2023-10-08T00:30:57;18.90;89.50
52189;DHT22;38162;45.926;13.608;2023-10-08T00:33:23;18.90;89.50
52189;DHT22;38162;45.926;13.608;2023-10-08T00:35:49;18.90;89.40
52189;DHT22;38162;45.926;13.608;2023-10-08T00:38:15;18.90;89.50
52189;DHT22;38162;45.926;13.608;2023-10-08T00:40:42;18.90;89.40
52189;DHT22;38162;45.926;13.608;2023-10-08T00:43:32;18.90;89.50
52189;DHT22;38162;45.926;13.608;2023-10-08T00:46:03;18.90;89.50
52189;DHT22;38162;45.926;13.608;2023-10-08T00:48:44;18.80;89.60
52189;DHT22;38162;45.926;13.608;2023-10-08T00:51:10;18.80;89.70
52189;DHT22;38162;45.926;13.608;2023-10-08T00:53:56;18.80;89.70
52189;DHT22;38162;45.926;13.608;2023-10-08T00:56:25;18.80;89.70
52189;DHT22;38162;45.926;13.608;2023-10-08T00:58:51;18.80;89.60
52189;DHT22;38162;45.926;13.608;2023-10-08T01:01:19;18.80;89.60
52189;DHT22;38162;45.926;13.608;2023-10-08T01:03:47;18.80;89.50
52189;DHT22;38162;45.926;13.608;2023-10-08T01:06:15;18.70;89.60
52189;DHT22;38162;45.926;13.608;2023-10-08T01:08:44;18.70;89.50
52189;DHT22;38162;45.926;13.608;2023-10-08T01:11:18;18.70;89.60
52189;DHT22;38162;45.926;13.608;2023-10-08T01:13:45;18.70;89.60
52189;DHT22;38162;45.926;13.608;2023-10-08T01:16:12;18.60;90.10
52189;DHT22;38162;45.926;13.608;2023-10-08T01:18:38;18.60;89.80
52189;DHT22;38162;45.926;13.608;2023-10-08T01:21:08;18.60;89.80
52189;DHT22;38162;45.926;13.608;2023-10-08T01:23:39;18.60;89.90
52189;DHT22;38162;45.926;13.608;2023-10-08T01:26:04;18.50;90.00
52189;DHT22;38162;45.926;13.608;2023-10-08T01:28:36;18.50;90.00
52189;DHT22;38162;45.926;13.608;2023-10-08T01:31:02;18.50;90.00
52189;DHT22;38162;45.926;13.608;2023-10-08T01:33:29;18.50;90.00
52189;DHT22;38162;45.926;13.608;2023-10-08T01:35:55;18.40;90.00
52189;DHT22;38162;45.926;13.608;2023-10-08T01:38:28;18.40;90.00
52189;DHT22;38162;45.926;13.608;2023-10-08T01:40:54;18.40;90.10
52189;DHT22;38162;45.926;13.608;2023-10-08T01:43:21;18.40;90.10
52189;DHT22;38162;45.926;13.608;2023-10-08T01:45:47;18.40;90.10
52189;DHT22;38162;45.926;13.608;2023-10-08T01:48:17;18.40;90.10
52189;DHT22;38162;45.926;13.608;2023-10-08T01:50:53;18.30;90.00
52189;DHT22;38162;45.926;13.608;2023-10-08T01:53:20;18.30;90.00
52189;DHT22;38162;45.926;13.608;2023-10-08T01:55:45;18.30;90.00
52189;DHT22;38162;45.926;13.608;2023-10-08T01:58:19;18.20;89.90
52189;DHT22;38162;45.926;13.608;2023-10-08T02:00:45;18.20;90.00
52189;DHT22;38162;45.926;13.608;2023-10-08T02:03:14;18.20;89.90
52189;DHT22;38162;45.926;13.608;2023-10-08T02:05:43;18.20;90.00
52189;DHT22;38162;45.926;13.608;2023-10-08T02:08:10;18.10;90.00
52189;DHT22;38162;45.926;13.608;2023-10-08T02:10:36;18.10;90.10
52189;DHT22;38162;45.926;13.608;2023-10-08T02:13:02;18.10;90.10
52189;DHT22;38162;45.926;13.608;2023-10-08T02:15:28;18.10;90.00
52189;DHT22;38162;45.926;13.608;2023-10-08T02:17:53;18.10;90.10
52189;DHT22;38162;45.926;13.608;2023-10-08T02:20:20;18.10;90.10
52189;DHT22;38162;45.926;13.608;2023-10-08T02:22:47;18.10;90.10
52189;DHT22;38162;45.926;13.608;2023-10-08T02:25:14;18.00;90.10
52189;DHT22;38162;45.926;13.608;2023-10-08T02:27:40;18.00;90.10
52189;DHT22;38162;45.926;13.608;2023-10-08T02:30:06;18.00;90.10
52189;DHT22;38162;45.926;13.608;2023-10-08T02:32:34;18.00;90.20
52189;DHT22;38162;45.926;13.608;2023-10-08T02:35:02;18.00;90.30
52189;DHT22;38162;45.926;13.608;2023-10-08T02:37:28;18.00;90.30
52189;DHT22;38162;45.926;13.608;2023-10-08T02:39:53;18.00;90.40
52189;DHT22;38162;45.926;13.608;2023-10-08T02:42:20;17.90;90.40
52189;DHT22;38162;45.926;13.608;2023-10-08T02:44:47;17.90;90.30
52189;DHT22;38162;45.926;13.608;2023-10-08T02:47:12;17.90;90.30
52189;DHT22;38162;45.926;13.608;2023-10-08T02:49:46;17.90;90.30
52189;DHT22;38162;45.926;13.608;2023-10-08T02:52:13;17.90;90.20
52189;DHT22;38162;45.926;13.608;2023-10-08T02:54:41;17.90;90.30
52189;DHT22;38162;45.926;13.608;2023-10-08T02:57:06;17.90;90.30
52189;DHT22;38162;45.926;13.608;2023-10-08T02:59:39;17.90;90.20
52189;DHT22;38162;45.926;13.608;2023-10-08T03:02:09;17.80;90.20
52189;DHT22;38162;45.926;13.608;2023-10-08T03:04:42;17.80;90.30
52189;DHT22;38162;45.926;13.608;2023-10-08T03:07:14;17.80;90.30
52189;DHT22;38162;45.926;13.608;2023-10-08T03:09:57;17.80;90.30
52189;DHT22;38162;45.926;13.608;2023-10-08T03:12:30;17.80;90.40
52189;DHT22;38162;45.926;13.608;2023-10-08T03:14:58;17.80;90.40
52189;DHT22;38162;45.926;13.608;2023-10-08T03:17:29;17.70;90.40
52189;DHT22;38162;45.926;13.608;2023-10-08T03:19:55;17.70;90.40
52189;DHT22;38162;45.926;13.608;2023-10-08T03:22:44;17.70;90.40
52189;DHT22;38162;45.926;13.608;2023-10-08T03:25:12;17.60;90.30
52189;DHT22;38162;45.926;13.608;2023-10-08T03:27:45;17.60;90.30
52189;DHT22;38162;45.926;13.608;2023-10-08T03:30:13;17.60;90.40
52189;DHT22;38162;45.926;13.608;2023-10-08T03:32:40;17.60;90.40
52189;DHT22;38162;45.926;13.608;2023-10-08T03:35:08;17.60;90.40
52189;DHT22;38162;45.926;13.608;2023-10-08T03:37:36;17.50;90.40
52189;DHT22;38162;45.926;13.608;2023-10-08T03:40:07;17.50;90.40
52189;DHT22;38162;45.926;13.608;2023-10-08T03:42:49;17.60;90.50
52189;DHT22;38162;45.926;13.608;2023-10-08T03:45:15;17.60;90.50
52189;DHT22;38162;45.926;13.608;2023-10-08T03:47:48;17.50;90.60
52189;DHT22;38162;45.926;13.608;2023-10-08T03:50:28;17.50;90.50
52189;DHT22;38162;45.926;13.608;2023-10-08T03:52:58;17.50;90.50
52189;DHT22;38162;45.926;13.608;2023-10-08T03:55:23;17.50;90.60
52189;DHT22;38162;45.926;13.608;2023-10-08T03:57:52;17.50;90.50
52189;DHT22;38162;45.926;13.608;2023-10-08T04:00:23;17.50;90.50
52189;DHT22;38162;45.926;13.608;2023-10-08T04:02:57;17.50;90.50
52189;DHT22;38162;45.926;13.608;2023-10-08T04:05:26;17.40;90.60
52189;DHT22;38162;45.926;13.608;2023-10-08T04:08:09;17.40;90.60
52189;DHT22;38162;45.926;13.608;2023-10-08T04:10:50;17.40;90.60
52189;DHT22;38162;45.926;13.608;2023-10-08T04:13:33;17.40;90.60
52189;DHT22;38162;45.926;13.608;2023-10-08T04:15:59;17.40;90.70
52189;DHT22;38162;45.926;13.608;2023-10-08T04:18:25;17.40;90.70
52189;DHT22;38162;45.926;13.608;2023-10-08T04:20:50;17.30;90.60
52189;DHT22;38162;45.926;13.608;2023-10-08T04:23:39;17.30;90.50
52189;DHT22;38162;45.926;13.608;2023-10-08T04:26:04;17.30;90.50
52189;DHT22;38162;45.926;13.608;2023-10-08T04:28:32;17.30;90.50
52189;DHT22;38162;45.926;13.608;2023-10-08T04:31:00;17.30;90.40
52189;DHT22;38162;45.926;13.608;2023-10-08T04:33:39;17.30;90.50
52189;DHT22;38162;45.926;13.608;2023-10-08T04:36:05;17.20;90.50
52189;DHT22;38162;45.926;13.608;2023-10-08T04:38:33;17.20;90.50
52189;DHT22;38162;45.926;13.608;2023-10-08T04:41:05;17.20;90.50
52189;DHT22;38162;45.926;13.608;2023-10-08T04:43:34;17.20;90.60
52189;DHT22;38162;45.926;13.608;2023-10-08T04:46:03;17.20;90.60
52189;DHT22;38162;45.926;13.608;2023-10-08T04:48:31;17.20;90.60
52189;DHT22;38162;45.926;13.608;2023-10-08T04:51:02;17.10;90.60
52189;DHT22;38162;45.926;13.608;2023-10-08T04:53:30;17.10;90.70
52189;DHT22;38162;45.926;13.608;2023-10-08T04:56:03;17.10;90.70
52189;DHT22;38162;45.926;13.608;2023-10-08T04:58:34;17.00;90.80
52189;DHT22;38162;45.926;13.608;2023-10-08T05:01:02;17.10;90.90
52189;DHT22;38162;45.926;13.608;2023-10-08T05:03:43;17.10;90.90
52189;DHT22;38162;45.926;13.608;2023-10-08T05:06:21;17.10;90.90
52189;DHT22;38162;45.926;13.608;2023-10-08T05:09:09;17.00;90.90
52189;DHT22;38162;45.926;13.608;2023-10-08T05:11:51;17.10;90.90
52189;DHT22;38162;45.926;13.608;2023-10-08T05:14:18;17.10;90.80
52189;DHT22;38162;45.926;13.608;2023-10-08T05:16:59;17.10;90.80
52189;DHT22;38162;45.926;13.608;2023-10-08T05:19:40;17.00;90.80
52189;DHT22;38162;45.926;13.608;2023-10-08T05:22:10;17.00;90.90
52189;DHT22;38162;45.926;13.608;2023-10-08T05:24:54;17.00;90.90
52189;DHT22;38162;45.926;13.608;2023-10-08T05:27:38;17.00;90.80
52189;DHT22;38162;45.926;13.608;2023-10-08T05:30:16;17.10;90.80
52189;DHT22;38162;45.926;13.608;2023-10-08T05:32:57;17.00;90.70
52189;DHT22;38162;45.926;13.608;2023-10-08T05:35:28;17.00;90.70
52189;DHT22;38162;45.926;13.608;2023-10-08T05:38:09;17.00;90.70
52189;DHT22;38162;45.926;13.608;2023-10-08T05:40:53;16.90;90.70
52189;DHT22;38162;45.926;13.608;2023-10-08T05:43:28;16.90;90.80
52189;DHT22;38162;45.926;13.608;2023-10-08T05:46:06;16.90;90.90
52189;DHT22;38162;45.926;13.608;2023-10-08T05:48:50;16.90;91.00
52189;DHT22;38162;45.926;13.608;2023-10-08T05:51:32;16.90;91.10
52189;DHT22;38162;45.926;13.608;2023-10-08T05:57:01;16.80;91.20
52189;DHT22;38162;45.926;13.608;2023-10-08T05:59:36;16.90;91.30
52189;DHT22;38162;45.926;13.608;2023-10-08T06:02:23;17.00;91.40
52189;DHT22;38162;45.926;13.608;2023-10-08T06:05:07;17.00;91.70
52189;DHT22;38162;45.926;13.608;2023-10-08T06:07:52;17.10;91.70
52189;DHT22;38162;45.926;13.608;2023-10-08T06:10:18;17.10;91.70
52189;DHT22;38162;45.926;13.608;2023-10-08T06:13:05;17.10;91.70
52189;DHT22;38162;45.926;13.608;2023-10-08T06:15:36;17.20;91.80
52189;DHT22;38162;45.926;13.608;2023-10-08T06:18:31;17.20;91.80
52189;DHT22;38162;45.926;13.608;2023-10-08T06:20:57;17.20;91.80
52189;DHT22;38162;45.926;13.608;2023-10-08T06:23:27;17.30;91.80
52189;DHT22;38162;45.926;13.608;2023-10-08T06:25:53;17.30;91.80
52189;DHT22;38162;45.926;13.608;2023-10-08T06:28:19;17.30;91.70
52189;DHT22;38162;45.926;13.608;2023-10-08T06:30:45;17.40;91.70
52189;DHT22;38162;45.926;13.608;2023-10-08T06:33:11;17.50;91.80
52189;DHT22;38162;45.926;13.608;2023-10-08T06:35:37;17.50;91.80
52189;DHT22;38162;45.926;13.608;2023-10-08T06:38:02;17.60;91.80
52189;DHT22;38162;45.926;13.608;2023-10-08T06:40:35;17.60;91.80
52189;DHT22;38162;45.926;13.608;2023-10-08T06:43:04;17.70;91.80
52189;DHT22;38162;45.926;13.608;2023-10-08T06:45:50;17.70;91.70
52189;DHT22;38162;45.926;13.608;2023-10-08T06:48:20;17.80;91.70
52189;DHT22;38162;45.926;13.608;2023-10-08T06:50:47;17.80;91.70
52189;DHT22;38162;45.926;13.608;2023-10-08T06:53:13;17.80;91.60
52189;DHT22;38162;45.926;13.608;2023-10-08T06:55:44;17.90;91.60
52189;DHT22;38162;45.926;13.608;2023-10-08T06:58:09;17.90;91.50
52189;DHT22;38162;45.926;13.608;2023-10-08T07:00:37;18.00;91.50
52189;DHT22;38162;45.926;13.608;2023-10-08T07:03:06;18.10;91.40
52189;DHT22;38162;45.926;13.608;2023-10-08T07:05:41;18.10;91.50
52189;DHT22;38162;45.926;13.608;2023-10-08T07:08:07;18.20;91.50
52189;DHT22;38162;45.926;13.608;2023-10-08T07:10:33;18.20;91.50
52189;DHT22;38162;45.926;13.608;2023-10-08T07:13:01;18.20;91.50
52189;DHT22;38162;45.926;13.608;2023-10-08T07:15:33;18.20;91.50
52189;DHT22;38162;45.926;13.608;2023-10-08T07:18:03;18.20;91.50
52189;DHT22;38162;45.926;13.608;2023-10-08T07:20:37;18.30;91.60
52189;DHT22;38162;45.926;13.608;2023-10-08T07:23:07;18.30;91.60
52189;DHT22;38162;45.926;13.608;2023-10-08T07:25:54;18.30;91.60
52189;DHT22;38162;45.926;13.608;2023-10-08T07:28:23;18.30;91.60
52189;DHT22;38162;45.926;13.608;2023-10-08T07:30:51;18.30;91.70
52189;DHT22;38162;45.926;13.608;2023-10-08T07:33:17;18.40;91.80
52189;DHT22;38162;45.926;13.608;2023-10-08T07:35:46;18.40;91.80
52189;DHT22;38162;45.926;13.608;2023-10-08T07:38:40;18.40;91.80
52189;DHT22;38162;45.926;13.608;2023-10-08T07:41:09;18.50;91.70
52189;DHT22;38162;45.926;13.608;2023-10-08T07:43:38;18.60;91.50
52189;DHT22;38162;45.926;13.608;2023-10-08T07:46:04;18.60;91.20
52189;DHT22;38162;45.926;13.608;2023-10-08T07:48:31;18.70;91.10
52189;DHT22;38162;45.926;13.608;2023-10-08T07:50:56;18.70;91.10
52189;DHT22;38162;45.926;13.608;2023-10-08T07:53:22;18.80;91.10
52189;DHT22;38162;45.926;13.608;2023-10-08T07:55:50;18.80;90.90
52189;DHT22;38162;45.926;13.608;2023-10-08T07:58:16;18.90;91.00
52189;DHT22;38162;45.926;13.608;2023-10-08T08:00:42;18.90;91.00
52189;DHT22;38162;45.926;13.608;2023-10-08T08:03:07;19.00;90.90
52189;DHT22;38162;45.926;13.608;2023-10-08T08:05:33;19.00;90.70
52189;DHT22;38162;45.926;13.608;2023-10-08T08:07:59;19.10;90.70
52189;DHT22;38162;45.926;13.608;2023-10-08T08:10:31;19.10;90.70
52189;DHT22;38162;45.926;13.608;2023-10-08T08:13:03;19.20;90.70
52189;DHT22;38162;45.926;13.608;2023-10-08T08:15:34;19.20;90.60
52189;DHT22;38162;45.926;13.608;2023-10-08T08:18:01;19.30;90.60
52189;DHT22;38162;45.926;13.608;2023-10-08T08:20:30;19.30;90.40
52189;DHT22;38162;45.926;13.608;2023-10-08T08:23:05;19.40;90.40
52189;DHT22;38162;45.926;13.608;2023-10-08T08:25:40;19.40;90.40
52189;DHT22;38162;45.926;13.608;2023-10-08T08:28:31;19.40;90.50
52189;DHT22;38162;45.926;13.608;2023-10-08T08:31:01;19.50;90.30
52189;DHT22;38162;45.926;13.608;2023-10-08T08:33:30;19.50;90.10
52189;DHT22;38162;45.926;13.608;2023-10-08T08:36:16;19.60;90.20
52189;DHT22;38162;45.926;13.608;2023-10-08T08:38:42;19.70;90.20
52189;DHT22;38162;45.926;13.608;2023-10-08T08:41:08;19.70;90.10
52189;DHT22;38162;45.926;13.608;2023-10-08T08:43:37;19.80;90.20
52189;DHT22;38162;45.926;13.608;2023-10-08T08:46:09;19.80;90.10
52189;DHT22;38162;45.926;13.608;2023-10-08T08:48:43;19.90;90.20
52189;DHT22;38162;45.926;13.608;2023-10-08T08:51:13;20.00;90.10
52189;DHT22;38162;45.926;13.608;2023-10-08T08:53:39;20.00;90.10
52189;DHT22;38162;45.926;13.608;2023-10-08T08:56:06;20.10;90.20
52189;DHT22;38162;45.926;13.608;2023-10-08T08:58:32;20.10;90.20
52189;DHT22;38162;45.926;13.608;2023-10-08T09:00:58;20.10;90.30
52189;DHT22;38162;45.926;13.608;2023-10-08T09:03:24;20.20;90.20
52189;DHT22;38162;45.926;13.608;2023-10-08T09:05:59;20.20;90.10
52189;DHT22;38162;45.926;13.608;2023-10-08T09:08:28;20.30;90.10
52189;DHT22;38162;45.926;13.608;2023-10-08T09:10:58;20.30;90.20
52189;DHT22;38162;45.926;13.608;2023-10-08T09:13:26;20.30;90.00
52189;DHT22;38162;45.926;13.608;2023-10-08T09:15:52;20.30;90.00
52189;DHT22;38162;45.926;13.608;2023-10-08T09:18:23;20.30;90.00
52189;DHT22;38162;45.926;13.608;2023-10-08T09:20:49;20.30;90.10
52189;DHT22;38162;45.926;13.608;2023-10-08T09:23:15;20.30;89.80
52189;DHT22;38162;45.926;13.608;2023-10-08T09:25:43;20.40;90.30
52189;DHT22;38162;45.926;13.608;2023-10-08T09:28:09;20.40;90.20
52189;DHT22;38162;45.926;13.608;2023-10-08T09:30:38;20.40;90.10
52189;DHT22;38162;45.926;13.608;2023-10-08T09:33:05;20.50;90.00
52189;DHT22;38162;45.926;13.608;2023-10-08T09:35:31;20.50;90.10
52189;DHT22;38162;45.926;13.608;2023-10-08T09:37:57;20.50;90.00
52189;DHT22;38162;45.926;13.608;2023-10-08T09:40:23;20.40;90.10
52189;DHT22;38162;45.926;13.608;2023-10-08T09:42:49;20.50;90.10
52189;DHT22;38162;45.926;13.608;2023-10-08T09:45:15;20.50;89.90
52189;DHT22;38162;45.926;13.608;2023-10-08T09:47:42;20.50;90.10
52189;DHT22;38162;45.926;13.608;2023-10-08T09:50:09;20.60;90.20
52189;DHT22;38162;45.926;13.608;2023-10-08T09:52:42;20.60;90.10
52189;DHT22;38162;45.926;13.608;2023-10-08T09:55:10;20.70;90.40
52189;DHT22;38162;45.926;13.608;2023-10-08T09:57:36;20.80;90.40
52189;DHT22;38162;45.926;13.608;2023-10-08T10:00:03;20.80;90.10
52189;DHT22;38162;45.926;13.608;2023-10-08T10:02:30;20.90;89.80
52189;DHT22;38162;45.926;13.608;2023-10-08T10:04:56;20.90;89.40
52189;DHT22;38162;45.926;13.608;2023-10-08T10:07:22;21.00;89.50
52189;DHT22;38162;45.926;13.608;2023-10-08T10:09:50;21.10;89.30
52189;DHT22;38162;45.926;13.608;2023-10-08T10:12:20;21.10;88.90
52189;DHT22;38162;45.926;13.608;2023-10-08T10:14:51;21.10;88.30
52189;DHT22;38162;45.926;13.608;2023-10-08T10:17:21;21.20;88.30
52189;DHT22;38162;45.926;13.608;2023-10-08T10:20:00;21.20;87.90
52189;DHT22;38162;45.926;13.608;2023-10-08T10:24:54;21.40;88.30
52189;DHT22;38162;45.926;13.608;2023-10-08T10:27:20;21.50;87.00
52189;DHT22;38162;45.926;13.608;2023-10-08T10:29:47;21.60;86.70
52189;DHT22;38162;45.926;13.608;2023-10-08T10:32:15;21.70;86.60
52189;DHT22;38162;45.926;13.608;2023-10-08T10:34:44;21.70;86.80
52189;DHT22;38162;45.926;13.608;2023-10-08T10:37:12;21.80;86.20
52189;DHT22;38162;45.926;13.608;2023-10-08T10:39:52;21.90;86.00
52189;DHT22;38162;45.926;13.608;2023-10-08T10:42:20;22.00;85.60
52189;DHT22;38162;45.926;13.608;2023-10-08T10:44:46;22.00;85.10
52189;DHT22;38162;45.926;13.608;2023-10-08T10:47:14;22.00;84.70
52189;DHT22;38162;45.926;13.608;2023-10-08T10:49:40;22.10;84.80
52189;DHT22;38162;45.926;13.608;2023-10-08T10:52:28;22.20;84.80
52189;DHT22;38162;45.926;13.608;2023-10-08T10:55:13;22.20;84.10
52189;DHT22;38162;45.926;13.608;2023-10-08T11:00:21;22.30;84.20
52189;DHT22;38162;45.926;13.608;2023-10-08T11:03:00;22.40;84.30
52189;DHT22;38162;45.926;13.608;2023-10-08T11:05:31;22.40;84.00
52189;DHT22;38162;45.926;13.608;2023-10-08T11:08:02;22.40;83.60
52189;DHT22;38162;45.926;13.608;2023-10-08T11:10:38;22.30;83.40
52189;DHT22;38162;45.926;13.608;2023-10-08T11:13:05;22.30;83.30
52189;DHT22;38162;45.926;13.608;2023-10-08T11:15:40;22.30;83.40
52189;DHT22;38162;45.926;13.608;2023-10-08T11:18:12;22.30;83.60
52189;DHT22;38162;45.926;13.608;2023-10-08T11:20:38;22.40;83.10
52189;DHT22;38162;45.926;13.608;2023-10-08T11:23:10;22.40;84.00
52189;DHT22;38162;45.926;13.608;2023-10-08T11:25:57;22.40;84.00
52189;DHT22;38162;45.926;13.608;2023-10-08T11:28:37;22.50;83.20
52189;DHT22;38162;45.926;13.608;2023-10-08T11:31:13;22.50;82.90
52189;DHT22;38162;45.926;13.608;2023-10-08T11:33:43;22.60;83.00
52189;DHT22;38162;45.926;13.608;2023-10-08T11:36:19;22.70;83.00
52189;DHT22;38162;45.926;13.608;2023-10-08T11:38:46;22.80;82.10
52189;DHT22;38162;45.926;13.608;2023-10-08T11:41:14;22.80;81.70
52189;DHT22;38162;45.926;13.608;2023-10-08T11:43:47;22.80;82.40
52189;DHT22;38162;45.926;13.608;2023-10-08T11:46:13;22.90;82.00
52189;DHT22;38162;45.926;13.608;2023-10-08T11:48:43;22.80;81.10
52189;DHT22;38162;45.926;13.608;2023-10-08T11:51:12;22.80;80.80
52189;DHT22;38162;45.926;13.608;2023-10-08T11:53:38;22.80;80.90
52189;DHT22;38162;45.926;13.608;2023-10-08T11:56:04;22.80;81.60
52189;DHT22;38162;45.926;13.608;2023-10-08T11:58:41;22.90;81.90
52189;DHT22;38162;45.926;13.608;2023-10-08T12:01:10;22.90;81.20
52189;DHT22;38162;45.926;13.608;2023-10-08T12:03:41;22.90;81.70
52189;DHT22;38162;45.926;13.608;2023-10-08T12:06:07;23.00;82.20
52189;DHT22;38162;45.926;13.608;2023-10-08T12:08:33;23.00;83.40
52189;DHT22;38162;45.926;13.608;2023-10-08T12:11:04;23.00;82.90
52189;DHT22;38162;45.926;13.608;2023-10-08T12:13:40;23.00;82.60
52189;DHT22;38162;45.926;13.608;2023-10-08T12:16:12;23.00;82.60
52189;DHT22;38162;45.926;13.608;2023-10-08T12:18:43;23.10;82.10
52189;DHT22;38162;45.926;13.608;2023-10-08T12:21:11;23.10;81.70
52189;DHT22;38162;45.926;13.608;2023-10-08T12:23:39;23.10;81.70
52189;DHT22;38162;45.926;13.608;2023-10-08T12:26:06;23.10;82.30
52189;DHT22;38162;45.926;13.608;2023-10-08T12:28:34;23.20;83.10
52189;DHT22;38162;45.926;13.608;2023-10-08T12:31:00;23.20;82.30
52189;DHT22;38162;45.926;13.608;2023-10-08T12:33:29;23.30;82.30
52189;DHT22;38162;45.926;13.608;2023-10-08T12:35:55;23.30;82.40
52189;DHT22;38162;45.926;13.608;2023-10-08T12:38:21;23.40;82.30
52189;DHT22;38162;45.926;13.608;2023-10-08T12:40:48;23.40;81.40
52189;DHT22;38162;45.926;13.608;2023-10-08T12:45:46;23.50;81.90
52189;DHT22;38162;45.926;13.608;2023-10-08T12:48:23;23.60;81.70
52189;DHT22;38162;45.926;13.608;2023-10-08T12:50:49;23.60;81.20
52189;DHT22;38162;45.926;13.608;2023-10-08T12:53:19;23.70;81.30
52189;DHT22;38162;45.926;13.608;2023-10-08T12:55:49;23.70;81.20
52189;DHT22;38162;45.926;13.608;2023-10-08T12:58:19;23.70;80.80
52189;DHT22;38162;45.926;13.608;2023-10-08T13:00:45;23.70;81.50
52189;DHT22;38162;45.926;13.608;2023-10-08T13:03:14;23.70;82.20
52189;DHT22;38162;45.926;13.608;2023-10-08T13:05:43;23.70;82.90
52189;DHT22;38162;45.926;13.608;2023-10-08T13:08:12;23.70;83.50
52189;DHT22;38162;45.926;13.608;2023-10-08T13:10:41;23.70;84.50
52189;DHT22;38162;45.926;13.608;2023-10-08T13:13:09;23.60;83.60
52189;DHT22;38162;45.926;13.608;2023-10-08T13:15:36;23.50;84.20
52189;DHT22;38162;45.926;13.608;2023-10-08T13:18:02;23.50;85.00
52189;DHT22;38162;45.926;13.608;2023-10-08T13:20:30;23.60;85.50
52189;DHT22;38162;45.926;13.608;2023-10-08T13:22:59;23.60;86.60
52189;DHT22;38162;45.926;13.608;2023-10-08T13:25:24;23.70;87.80
52189;DHT22;38162;45.926;13.608;2023-10-08T13:27:51;23.70;89.80
52189;DHT22;38162;45.926;13.608;2023-10-08T13:30:17;23.70;91.80
52189;DHT22;38162;45.926;13.608;2023-10-08T13:32:42;23.70;85.60
52189;DHT22;38162;45.926;13.608;2023-10-08T13:35:08;23.70;85.50
52189;DHT22;38162;45.926;13.608;2023-10-08T13:37:36;23.80;85.00
52189;DHT22;38162;45.926;13.608;2023-10-08T13:40:02;23.80;84.90
52189;DHT22;38162;45.926;13.608;2023-10-08T13:42:28;23.90;86.20
52189;DHT22;38162;45.926;13.608;2023-10-08T13:44:57;23.90;86.10
52189;DHT22;38162;45.926;13.608;2023-10-08T13:47:33;23.90;86.30
52189;DHT22;38162;45.926;13.608;2023-10-08T13:49:59;23.90;87.70
52189;DHT22;38162;45.926;13.608;2023-10-08T13:52:24;23.90;87.90
52189;DHT22;38162;45.926;13.608;2023-10-08T13:54:52;23.90;87.80
52189;DHT22;38162;45.926;13.608;2023-10-08T13:57:18;23.90;87.60
52189;DHT22;38162;45.926;13.608;2023-10-08T13:59:48;23.90;87.60
52189;DHT22;38162;45.926;13.608;2023-10-08T14:02:16;23.90;88.30
52189;DHT22;38162;45.926;13.608;2023-10-08T14:04:44;23.80;88.40
52189;DHT22;38162;45.926;13.608;2023-10-08T14:07:10;23.80;88.90
52189;DHT22;38162;45.926;13.608;2023-10-08T14:09:37;23.80;88.90
52189;DHT22;38162;45.926;13.608;2023-10-08T14:12:04;23.80;88.70
52189;DHT22;38162;45.926;13.608;2023-10-08T14:14:29;23.70;88.40
52189;DHT22;38162;45.926;13.608;2023-10-08T14:16:55;23.70;88.60
52189;DHT22;38162;45.926;13.608;2023-10-08T14:19:25;23.70;89.50
52189;DHT22;38162;45.926;13.608;2023-10-08T14:22:04;23.70;90.10
52189;DHT22;38162;45.926;13.608;2023-10-08T14:24:33;23.60;90.30
52189;DHT22;38162;45.926;13.608;2023-10-08T14:27:03;23.60;90.60
52189;DHT22;38162;45.926;13.608;2023-10-08T14:29:38;23.60;90.80
52189;DHT22;38162;45.926;13.608;2023-10-08T14:32:06;23.50;90.90
52189;DHT22;38162;45.926;13.608;2023-10-08T14:34:36;23.50;91.30
52189;DHT22;38162;45.926;13.608;2023-10-08T14:37:08;23.50;91.50
52189;DHT22;38162;45.926;13.608;2023-10-08T14:39:52;23.50;91.90
52189;DHT22;38162;45.926;13.608;2023-10-08T14:42:36;23.50;92.40
52189;DHT22;38162;45.926;13.608;2023-10-08T14:45:21;23.50;94.00
52189;DHT22;38162;45.926;13.608;2023-10-08T14:47:47;23.40;90.90
52189;DHT22;38162;45.926;13.608;2023-10-08T14:50:13;23.40;90.70
52189;DHT22;38162;45.926;13.608;2023-10-08T14:52:44;23.40;90.40
52189;DHT22;38162;45.926;13.608;2023-10-08T14:55:10;23.30;89.80
52189;DHT22;38162;45.926;13.608;2023-10-08T14:57:39;23.30;89.50
52189;DHT22;38162;45.926;13.608;2023-10-08T15:00:06;23.30;89.60
52189;DHT22;38162;45.926;13.608;2023-10-08T15:02:32;23.40;89.30
52189;DHT22;38162;45.926;13.608;2023-10-08T15:04:58;23.40;89.10
52189;DHT22;38162;45.926;13.608;2023-10-08T15:07:29;23.30;89.30
52189;DHT22;38162;45.926;13.608;2023-10-08T15:09:54;23.30;89.60
52189;DHT22;38162;45.926;13.608;2023-10-08T15:12:28;23.30;90.20
52189;DHT22;38162;45.926;13.608;2023-10-08T15:14:59;23.30;90.00
52189;DHT22;38162;45.926;13.608;2023-10-08T15:17:24;23.30;90.10
52189;DHT22;38162;45.926;13.608;2023-10-08T15:19:50;23.30;90.10
52189;DHT22;38162;45.926;13.608;2023-10-08T15:22:16;23.30;90.10
52189;DHT22;38162;45.926;13.608;2023-10-08T15:24:42;23.30;90.20
52189;DHT22;38162;45.926;13.608;2023-10-08T15:27:08;23.30;90.10
52189;DHT22;38162;45.926;13.608;2023-10-08T15:29:35;23.30;90.00
52189;DHT22;38162;45.926;13.608;2023-10-08T15:32:02;23.30;90.20
52189;DHT22;38162;45.926;13.608;2023-10-08T15:34:28;23.30;90.30
52189;DHT22;38162;45.926;13.608;2023-10-08T15:36:54;23.30;90.40
52189;DHT22;38162;45.926;13.608;2023-10-08T15:39:19;23.30;90.60
52189;DHT22;38162;45.926;13.608;2023-10-08T15:41:51;23.30;90.60
52189;DHT22;38162;45.926;13.608;2023-10-08T15:44:17;23.20;90.60